createdAt,value
2019-05-10T00:08:39.229Z,21.6
2019-05-10T00:18:38.524Z,21.5
2019-05-10T00:28:37.836Z,21.6
2019-05-10T00:38:37.082Z,21.6
2019-05-10T00:48:36.293Z,21.6
2019-05-10T00:58:09.865Z,21.6
2019-05-10T01:08:09.070Z,21.7
2019-05-10T01:18:08.285Z,21.7
2019-05-10T01:28:07.504Z,21.7
2019-05-10T01:38:06.707Z,21.7
2019-05-10T01:48:05.912Z,21.7
2019-05-10T01:58:05.129Z,21.8
2019-05-10T02:08:04.425Z,21.8
2019-05-10T02:18:03.714Z,21.8
2019-05-10T02:28:03.015Z,21.8
2019-05-10T02:38:02.312Z,21.8
2019-05-10T02:48:01.609Z,21.8
2019-05-10T02:58:00.908Z,21.8
2019-05-10T03:08:00.076Z,21.8
2019-05-10T03:17:59.284Z,20.4
2019-05-10T03:27:58.496Z,20.4
2019-05-10T03:37:57.698Z,20.4
2019-05-10T03:47:56.911Z,20.4
2019-05-10T03:57:56.122Z,20.4
2019-05-10T04:05:46.898Z,20.4
2019-05-10T04:15:46.108Z,20.4
2019-05-10T04:25:45.363Z,20.5
2019-05-10T04:35:44.533Z,20.5
2019-05-10T04:45:43.795Z,20.4
2019-05-10T04:55:42.967Z,20.5
2019-05-10T05:05:42.173Z,20.6
2019-05-10T05:16:35.997Z,20.6
2019-05-10T05:26:35.210Z,20.6
2019-05-10T05:36:34.463Z,20.7
2019-05-10T05:40:08.956Z,20.8
2019-05-10T05:50:08.114Z,20.9
2019-05-10T06:00:07.368Z,21.1
2019-05-10T06:10:09.987Z,21.3
2019-05-10T06:17:42.817Z,21.4
2019-05-10T06:27:43.204Z,21.6
2019-05-10T06:37:41.163Z,21.8
2019-05-10T06:47:41.822Z,22
2019-05-10T06:56:21.198Z,22.1
2019-05-10T07:06:20.409Z,22.2
2019-05-10T07:16:23.725Z,22.3
2019-05-10T07:26:23.696Z,22.4
2019-05-10T07:36:20.526Z,22.8
2019-05-10T07:46:17.258Z,23.3
2019-05-10T07:56:16.449Z,23.8
2019-05-10T08:06:15.834Z,24.2
2019-05-10T08:16:20.120Z,24.4
2019-05-10T08:26:19.686Z,24.6
2019-05-10T08:36:13.628Z,24.9
2019-05-10T08:46:12.930Z,25.3
2019-05-10T08:56:13.540Z,25.5
2019-05-10T09:06:16.403Z,25.9
2019-05-10T09:16:10.695Z,26.4
2019-05-10T09:26:15.248Z,27.2
2019-05-10T09:36:09.023Z,27.9
2019-05-10T09:46:08.228Z,28.5
2019-05-10T09:56:07.927Z,29.1
2019-05-10T10:00:02.911Z,29.2
2019-05-10T10:10:02.124Z,29.8
2019-05-10T10:20:01.318Z,30.3
2019-05-10T10:30:00.536Z,30.8
2019-05-10T10:40:05.132Z,31.2
2019-05-10T10:50:02.875Z,31.6
2019-05-10T10:59:58.155Z,32.1
2019-05-10T11:10:06.979Z,32.6
2019-05-10T11:19:56.754Z,33
2019-05-10T11:29:56.038Z,33.3
2019-05-10T11:39:55.330Z,33.8
2019-05-10T11:49:54.635Z,34.2
2019-05-10T12:01:08.839Z,34.9
2019-05-10T12:11:10.954Z,35.6
2019-05-10T12:22:04.541Z,36.3
2019-05-10T12:32:14.181Z,36.9
2019-05-10T12:42:14.260Z,37.4
2019-05-10T12:44:55.838Z,37.6
2019-05-10T12:54:52.163Z,38
2019-05-10T13:04:52.351Z,38.6
2019-05-10T13:14:52.804Z,38.9
2019-05-10T13:24:49.794Z,39.2
2019-05-10T13:34:49.001Z,39.4
2019-05-10T13:44:48.264Z,39.7
2019-05-10T13:54:47.521Z,39.9
2019-05-10T14:04:46.813Z,40.4
2019-05-10T14:14:46.101Z,40.8
2019-05-10T14:24:46.627Z,41.1
2019-05-10T14:34:46.310Z,41.4
2019-05-10T14:44:43.945Z,41.8
2019-05-10T14:54:44.333Z,42.1
2019-05-10T15:04:44.834Z,42.4
2019-05-10T15:14:41.564Z,42.6
2019-05-10T15:24:40.786Z,42.8
2019-05-10T15:34:39.991Z,42.9
2019-05-10T15:44:39.205Z,42.9
2019-05-10T15:54:44.488Z,42.9
2019-05-10T16:04:37.691Z,42.9
2019-05-10T16:14:38.981Z,42.5
2019-05-10T16:24:36.032Z,41.8
2019-05-10T16:34:35.311Z,39.7
2019-05-10T16:44:34.472Z,39.5
2019-05-10T16:54:33.674Z,39.3
2019-05-10T17:04:37.356Z,39.1
2019-05-10T17:14:32.103Z,37.9
2019-05-10T17:24:31.310Z,37.4
2019-05-10T17:31:48.833Z,37.4
2019-05-10T17:41:48.044Z,37.3
2019-05-10T17:51:47.258Z,37.2
2019-05-10T18:01:46.478Z,36.6
2019-05-10T18:07:07.947Z,36.3
2019-05-10T18:17:07.364Z,36.4
2019-05-10T18:27:06.352Z,36.4
2019-05-10T18:37:05.581Z,36.3
2019-05-10T18:47:04.800Z,36.3
2019-05-10T18:57:11.528Z,36.3
2019-05-10T19:07:09.539Z,36.2
2019-05-10T19:17:03.731Z,36
2019-05-10T19:27:07.144Z,35.9
2019-05-10T19:37:01.114Z,35.9
2019-05-10T19:47:00.410Z,35.9
2019-05-10T19:54:24.286Z,35.9
2019-05-10T20:05:55.685Z,35.8
2019-05-10T20:15:54.890Z,33.8
2019-05-10T20:25:54.108Z,34.1
2019-05-10T20:35:53.326Z,34.2
2019-05-10T20:45:52.537Z,34.3
2019-05-10T20:55:51.744Z,34.1
2019-05-10T21:05:50.971Z,34
2019-05-10T21:15:50.273Z,34
2019-05-10T21:25:49.578Z,34
2019-05-10T21:35:48.859Z,34
2019-05-10T21:46:03.408Z,33.9
2019-05-10T21:56:02.605Z,34
2019-05-10T22:06:01.810Z,33.9
2019-05-10T22:16:01.027Z,33.9
2019-05-10T22:26:00.236Z,33.9
2019-05-10T22:35:59.445Z,33.9
2019-05-10T22:45:58.656Z,33.9
2019-05-10T22:55:57.962Z,33.9
2019-05-10T23:05:57.255Z,33.9
2019-05-10T23:15:56.546Z,33.9
2019-05-10T23:25:55.833Z,33.9
2019-05-10T23:35:55.143Z,33.8
2019-05-10T23:45:54.403Z,33.8
2019-05-10T23:55:53.616Z,33.8
